sensor_id;sensor_type;location;lat;lon;timestamp;temperature;humidity
76855;DHT22;66343;44.588;33.450;2023-06-10T00:01:07;20.34;82.13
76855;DHT22;66343;44.588;33.450;2023-06-10T00:03:37;20.35;82.08
76855;DHT22;66343;44.588;33.450;2023-06-10T00:06:13;20.40;81.64
76855;DHT22;66343;44.588;33.450;2023-06-10T00:08:53;20.43;81.40
76855;DHT22;66343;44.588;33.450;2023-06-10T00:11:23;20.43;81.30
76855;DHT22;66343;44.588;33.450;2023-06-10T00:13:54;20.41;81.39
76855;DHT22;66343;44.588;33.450;2023-06-10T00:16:28;20.37;81.43
76855;DHT22;66343;44.588;33.450;2023-06-10T00:19:03;20.36;81.36
76855;DHT22;66343;44.588;33.450;2023-06-10T00:21:46;20.34;81.35
76855;DHT22;66343;44.588;33.450;2023-06-10T00:24:15;20.30;81.43
76855;DHT22;66343;44.588;33.450;2023-06-10T00:26:49;20.31;81.42
76855;DHT22;66343;44.588;33.450;2023-06-10T00:29:24;20.29;81.41
76855;DHT22;66343;44.588;33.450;2023-06-10T00:31:57;20.26;81.62
76855;DHT22;66343;44.588;33.450;2023-06-10T00:34:30;20.30;81.28
76855;DHT22;66343;44.588;33.450;2023-06-10T00:37:05;20.36;81.12
76855;DHT22;66343;44.588;33.450;2023-06-10T00:39:34;20.40;80.96
76855;DHT22;66343;44.588;33.450;2023-06-10T00:42:08;20.44;80.76
76855;DHT22;66343;44.588;33.450;2023-06-10T00:44:44;20.51;80.20
76855;DHT22;66343;44.588;33.450;2023-06-10T00:47:16;20.53;80.43
76855;DHT22;66343;44.588;33.450;2023-06-10T00:49:48;20.56;80.24
76855;DHT22;66343;44.588;33.450;2023-06-10T00:52:22;20.58;79.78
76855;DHT22;66343;44.588;33.450;2023-06-10T00:54:54;20.62;79.30
76855;DHT22;66343;44.588;33.450;2023-06-10T00:57:27;20.64;78.98
76855;DHT22;66343;44.588;33.450;2023-06-10T01:00:10;20.64;78.63
76855;DHT22;66343;44.588;33.450;2023-06-10T01:02:41;20.65;78.56
76855;DHT22;66343;44.588;33.450;2023-06-10T01:05:11;20.69;78.14
76855;DHT22;66343;44.588;33.450;2023-06-10T01:07:53;20.73;77.83
76855;DHT22;66343;44.588;33.450;2023-06-10T01:10:36;20.79;77.55
76855;DHT22;66343;44.588;33.450;2023-06-10T01:13:15;20.76;77.74
76855;DHT22;66343;44.588;33.450;2023-06-10T01:15:45;20.76;77.58
76855;DHT22;66343;44.588;33.450;2023-06-10T01:18:15;20.75;77.61
76855;DHT22;66343;44.588;33.450;2023-06-10T01:20:48;20.76;77.54
76855;DHT22;66343;44.588;33.450;2023-06-10T01:23:21;20.77;77.47
76855;DHT22;66343;44.588;33.450;2023-06-10T01:26:06;20.79;77.47
76855;DHT22;66343;44.588;33.450;2023-06-10T01:29:14;20.79;77.34
76855;DHT22;66343;44.588;33.450;2023-06-10T01:34:37;20.80;77.43
76855;DHT22;66343;44.588;33.450;2023-06-10T01:37:13;20.75;77.73
76855;DHT22;66343;44.588;33.450;2023-06-10T01:39:50;20.73;77.89
76855;DHT22;66343;44.588;33.450;2023-06-10T01:42:20;20.74;77.61
76855;DHT22;66343;44.588;33.450;2023-06-10T01:44:53;20.76;77.19
76855;DHT22;66343;44.588;33.450;2023-06-10T01:47:27;20.80;77.15
76855;DHT22;66343;44.588;33.450;2023-06-10T01:50:06;20.77;77.50
76855;DHT22;66343;44.588;33.450;2023-06-10T01:52:42;20.77;77.33
76855;DHT22;66343;44.588;33.450;2023-06-10T01:55:12;20.79;77.34
76855;DHT22;66343;44.588;33.450;2023-06-10T01:57:49;20.78;77.23
76855;DHT22;66343;44.588;33.450;2023-06-10T02:00:20;20.78;77.22
76855;DHT22;66343;44.588;33.450;2023-06-10T02:02:53;20.81;76.95
76855;DHT22;66343;44.588;33.450;2023-06-10T02:05:27;20.84;76.67
76855;DHT22;66343;44.588;33.450;2023-06-10T02:08:00;20.85;76.50
76855;DHT22;66343;44.588;33.450;2023-06-10T02:10:32;20.85;76.34
76855;DHT22;66343;44.588;33.450;2023-06-10T02:13:01;20.84;76.47
76855;DHT22;66343;44.588;33.450;2023-06-10T02:15:34;20.79;76.51
76855;DHT22;66343;44.588;33.450;2023-06-10T02:18:07;20.77;76.71
76855;DHT22;66343;44.588;33.450;2023-06-10T02:20:46;20.78;76.73
76855;DHT22;66343;44.588;33.450;2023-06-10T02:23:17;20.75;76.61
76855;DHT22;66343;44.588;33.450;2023-06-10T02:25:49;20.75;76.44
76855;DHT22;66343;44.588;33.450;2023-06-10T02:28:24;20.79;76.03
76855;DHT22;66343;44.588;33.450;2023-06-10T02:31:00;20.80;75.77
76855;DHT22;66343;44.588;33.450;2023-06-10T02:33:33;20.81;75.59
76855;DHT22;66343;44.588;33.450;2023-06-10T02:36:10;20.81;75.70
76855;DHT22;66343;44.588;33.450;2023-06-10T02:38:50;20.73;76.08
76855;DHT22;66343;44.588;33.450;2023-06-10T02:41:29;20.61;76.98
76855;DHT22;66343;44.588;33.450;2023-06-10T02:44:08;20.53;77.19
76855;DHT22;66343;44.588;33.450;2023-06-10T02:46:44;20.57;76.79
76855;DHT22;66343;44.588;33.450;2023-06-10T02:49:18;20.66;76.41
76855;DHT22;66343;44.588;33.450;2023-06-10T02:51:53;20.69;76.20
76855;DHT22;66343;44.588;33.450;2023-06-10T02:54:25;20.69;76.40
76855;DHT22;66343;44.588;33.450;2023-06-10T02:56:58;20.73;76.53
76855;DHT22;66343;44.588;33.450;2023-06-10T02:59:31;20.76;76.08
76855;DHT22;66343;44.588;33.450;2023-06-10T03:02:08;20.80;75.75
76855;DHT22;66343;44.588;33.450;2023-06-10T03:04:49;20.76;75.47
76855;DHT22;66343;44.588;33.450;2023-06-10T03:07:26;20.76;75.40
76855;DHT22;66343;44.588;33.450;2023-06-10T03:09:56;20.76;75.44
76855;DHT22;66343;44.588;33.450;2023-06-10T03:12:32;20.80;75.83
76855;DHT22;66343;44.588;33.450;2023-06-10T03:15:01;20.76;75.89
76855;DHT22;66343;44.588;33.450;2023-06-10T03:17:37;20.75;76.03
76855;DHT22;66343;44.588;33.450;2023-06-10T03:20:18;20.79;75.75
76855;DHT22;66343;44.588;33.450;2023-06-10T03:22:47;20.85;75.49
76855;DHT22;66343;44.588;33.450;2023-06-10T03:25:22;20.87;75.41
76855;DHT22;66343;44.588;33.450;2023-06-10T03:27:53;20.88;75.20
76855;DHT22;66343;44.588;33.450;2023-06-10T03:30:23;20.89;75.20
76855;DHT22;66343;44.588;33.450;2023-06-10T03:32:57;20.85;75.00
76855;DHT22;66343;44.588;33.450;2023-06-10T03:35:29;20.81;75.03
76855;DHT22;66343;44.588;33.450;2023-06-10T03:38:07;20.83;75.09
76855;DHT22;66343;44.588;33.450;2023-06-10T03:40:40;20.84;75.14
76855;DHT22;66343;44.588;33.450;2023-06-10T03:43:12;20.88;74.77
76855;DHT22;66343;44.588;33.450;2023-06-10T03:45:46;20.90;75.04
76855;DHT22;66343;44.588;33.450;2023-06-10T03:48:19;20.95;74.60
76855;DHT22;66343;44.588;33.450;2023-06-10T03:51:00;21.05;74.03
76855;DHT22;66343;44.588;33.450;2023-06-10T03:53:31;21.08;73.89
76855;DHT22;66343;44.588;33.450;2023-06-10T03:56:04;21.14;73.86
76855;DHT22;66343;44.588;33.450;2023-06-10T03:58:42;21.15;73.65
76855;DHT22;66343;44.588;33.450;2023-06-10T04:01:15;21.13;73.62
76855;DHT22;66343;44.588;33.450;2023-06-10T04:03:57;21.15;73.53
76855;DHT22;66343;44.588;33.450;2023-06-10T04:06:35;21.20;73.70
76855;DHT22;66343;44.588;33.450;2023-06-10T04:09:05;21.21;73.14
76855;DHT22;66343;44.588;33.450;2023-06-10T04:11:39;21.25;72.92
76855;DHT22;66343;44.588;33.450;2023-06-10T04:14:15;21.30;72.90
76855;DHT22;66343;44.588;33.450;2023-06-10T04:16:54;21.35;72.72
76855;DHT22;66343;44.588;33.450;2023-06-10T04:19:24;21.42;72.51
76855;DHT22;66343;44.588;33.450;2023-06-10T04:22:00;21.45;72.05
76855;DHT22;66343;44.588;33.450;2023-06-10T04:24:34;21.48;71.73
76855;DHT22;66343;44.588;33.450;2023-06-10T04:27:10;21.55;71.27
76855;DHT22;66343;44.588;33.450;2023-06-10T04:29:40;21.64;70.93
76855;DHT22;66343;44.588;33.450;2023-06-10T04:32:13;21.72;70.74
76855;DHT22;66343;44.588;33.450;2023-06-10T04:34:46;21.77;70.53
76855;DHT22;66343;44.588;33.450;2023-06-10T04:37:19;21.80;70.78
76855;DHT22;66343;44.588;33.450;2023-06-10T04:39:56;21.82;70.60
76855;DHT22;66343;44.588;33.450;2023-06-10T04:42:26;21.84;69.93
76855;DHT22;66343;44.588;33.450;2023-06-10T04:44:59;21.91;69.18
76855;DHT22;66343;44.588;33.450;2023-06-10T04:47:32;21.98;68.65
76855;DHT22;66343;44.588;33.450;2023-06-10T04:50:11;22.02;66.39
76855;DHT22;66343;44.588;33.450;2023-06-10T04:52:43;22.06;66.07
76855;DHT22;66343;44.588;33.450;2023-06-10T04:55:19;22.10;64.22
76855;DHT22;66343;44.588;33.450;2023-06-10T04:57:57;22.08;59.45
76855;DHT22;66343;44.588;33.450;2023-06-10T05:00:31;22.10;61.41
76855;DHT22;66343;44.588;33.450;2023-06-10T05:03:05;22.14;61.03
76855;DHT22;66343;44.588;33.450;2023-06-10T05:05:42;22.22;61.07
76855;DHT22;66343;44.588;33.450;2023-06-10T05:08:12;22.26;60.32
76855;DHT22;66343;44.588;33.450;2023-06-10T05:10:47;22.33;60.79
76855;DHT22;66343;44.588;33.450;2023-06-10T05:13:20;22.35;60.54
76855;DHT22;66343;44.588;33.450;2023-06-10T05:15:52;22.41;59.40
76855;DHT22;66343;44.588;33.450;2023-06-10T05:18:21;22.48;59.44
76855;DHT22;66343;44.588;33.450;2023-06-10T05:20:53;22.56;57.51
76855;DHT22;66343;44.588;33.450;2023-06-10T05:23:28;22.64;57.41
76855;DHT22;66343;44.588;33.450;2023-06-10T05:25:59;22.72;54.07
76855;DHT22;66343;44.588;33.450;2023-06-10T05:28:34;22.83;54.44
76855;DHT22;66343;44.588;33.450;2023-06-10T05:31:07;22.85;54.22
76855;DHT22;66343;44.588;33.450;2023-06-10T05:33:38;22.90;54.40
76855;DHT22;66343;44.588;33.450;2023-06-10T05:36:12;22.97;55.52
76855;DHT22;66343;44.588;33.450;2023-06-10T05:38:42;23.06;55.45
76855;DHT22;66343;44.588;33.450;2023-06-10T05:41:11;23.08;55.10
76855;DHT22;66343;44.588;33.450;2023-06-10T05:43:41;23.12;56.60
76855;DHT22;66343;44.588;33.450;2023-06-10T05:46:17;23.06;56.25
76855;DHT22;66343;44.588;33.450;2023-06-10T05:48:51;22.98;58.79
76855;DHT22;66343;44.588;33.450;2023-06-10T05:51:28;22.85;59.93
76855;DHT22;66343;44.588;33.450;2023-06-10T05:54:03;22.79;59.59
76855;DHT22;66343;44.588;33.450;2023-06-10T05:56:34;22.77;57.30
76855;DHT22;66343;44.588;33.450;2023-06-10T05:59:04;22.73;56.26
76855;DHT22;66343;44.588;33.450;2023-06-10T06:01:42;22.68;55.97
76855;DHT22;66343;44.588;33.450;2023-06-10T06:04:33;22.61;56.49
76855;DHT22;66343;44.588;33.450;2023-06-10T06:07:06;22.58;56.98
76855;DHT22;66343;44.588;33.450;2023-06-10T06:09:44;22.58;56.19
76855;DHT22;66343;44.588;33.450;2023-06-10T06:12:18;22.57;56.84
76855;DHT22;66343;44.588;33.450;2023-06-10T06:14:52;22.61;55.50
76855;DHT22;66343;44.588;33.450;2023-06-10T06:17:22;22.63;57.09
76855;DHT22;66343;44.588;33.450;2023-06-10T06:19:56;22.66;57.71
76855;DHT22;66343;44.588;33.450;2023-06-10T06:22:33;22.72;57.74
76855;DHT22;66343;44.588;33.450;2023-06-10T06:25:07;22.71;57.29
76855;DHT22;66343;44.588;33.450;2023-06-10T06:27:40;22.75;59.35
76855;DHT22;66343;44.588;33.450;2023-06-10T06:30:17;22.67;61.81
76855;DHT22;66343;44.588;33.450;2023-06-10T06:32:47;22.60;59.99
76855;DHT22;66343;44.588;33.450;2023-06-10T06:35:20;22.58;61.88
76855;DHT22;66343;44.588;33.450;2023-06-10T06:37:54;22.60;63.40
76855;DHT22;66343;44.588;33.450;2023-06-10T06:40:28;22.62;59.81
76855;DHT22;66343;44.588;33.450;2023-06-10T06:43:07;22.64;62.50
76855;DHT22;66343;44.588;33.450;2023-06-10T06:46:01;22.61;62.15
76855;DHT22;66343;44.588;33.450;2023-06-10T06:48:36;22.57;65.01
76855;DHT22;66343;44.588;33.450;2023-06-10T06:51:07;22.50;65.76
76855;DHT22;66343;44.588;33.450;2023-06-10T06:53:38;22.48;65.69
76855;DHT22;66343;44.588;33.450;2023-06-10T06:56:16;22.51;63.29
76855;DHT22;66343;44.588;33.450;2023-06-10T06:58:50;22.55;62.53
76855;DHT22;66343;44.588;33.450;2023-06-10T07:01:26;22.56;62.33
76855;DHT22;66343;44.588;33.450;2023-06-10T07:03:55;22.57;62.17
76855;DHT22;66343;44.588;33.450;2023-06-10T07:06:29;22.57;61.48
76855;DHT22;66343;44.588;33.450;2023-06-10T07:08:58;22.61;62.98
76855;DHT22;66343;44.588;33.450;2023-06-10T07:11:30;22.67;61.83
76855;DHT22;66343;44.588;33.450;2023-06-10T07:14:05;22.73;61.05
76855;DHT22;66343;44.588;33.450;2023-06-10T07:16:43;22.76;61.61
76855;DHT22;66343;44.588;33.450;2023-06-10T07:19:15;22.77;60.32
76855;DHT22;66343;44.588;33.450;2023-06-10T07:21:47;22.78;62.40
76855;DHT22;66343;44.588;33.450;2023-06-10T07:24:20;22.71;60.83
76855;DHT22;66343;44.588;33.450;2023-06-10T07:26:50;22.75;60.92
76855;DHT22;66343;44.588;33.450;2023-06-10T07:29:20;22.81;61.39
76855;DHT22;66343;44.588;33.450;2023-06-10T07:31:50;22.82;62.62
76855;DHT22;66343;44.588;33.450;2023-06-10T07:34:22;22.85;64.37
76855;DHT22;66343;44.588;33.450;2023-06-10T07:36:56;22.86;65.30
76855;DHT22;66343;44.588;33.450;2023-06-10T07:39:31;22.84;61.25
76855;DHT22;66343;44.588;33.450;2023-06-10T07:42:01;22.87;62.31
76855;DHT22;66343;44.588;33.450;2023-06-10T07:44:30;22.88;61.08
76855;DHT22;66343;44.588;33.450;2023-06-10T07:47:10;22.81;65.79
76855;DHT22;66343;44.588;33.450;2023-06-10T07:49:39;22.77;61.00
76855;DHT22;66343;44.588;33.450;2023-06-10T07:52:10;22.80;64.00
76855;DHT22;66343;44.588;33.450;2023-06-10T07:54:41;22.83;65.66
76855;DHT22;66343;44.588;33.450;2023-06-10T07:57:19;22.80;66.26
76855;DHT22;66343;44.588;33.450;2023-06-10T07:59:50;22.83;66.57
76855;DHT22;66343;44.588;33.450;2023-06-10T08:02:28;22.91;66.71
76855;DHT22;66343;44.588;33.450;2023-06-10T08:05:02;23.00;67.23
76855;DHT22;66343;44.588;33.450;2023-06-10T08:07:33;22.94;65.07
76855;DHT22;66343;44.588;33.450;2023-06-10T08:10:06;23.05;66.55
76855;DHT22;66343;44.588;33.450;2023-06-10T08:12:41;23.12;65.59
76855;DHT22;66343;44.588;33.450;2023-06-10T08:15:13;23.09;61.97
76855;DHT22;66343;44.588;33.450;2023-06-10T08:17:44;23.17;64.71
76855;DHT22;66343;44.588;33.450;2023-06-10T08:20:17;23.25;65.30
76855;DHT22;66343;44.588;33.450;2023-06-10T08:22:51;23.27;63.50
76855;DHT22;66343;44.588;33.450;2023-06-10T08:25:21;23.21;63.16
76855;DHT22;66343;44.588;33.450;2023-06-10T08:27:52;23.26;65.50
76855;DHT22;66343;44.588;33.450;2023-06-10T08:30:31;23.34;65.52
76855;DHT22;66343;44.588;33.450;2023-06-10T08:33:05;23.44;63.57
76855;DHT22;66343;44.588;33.450;2023-06-10T08:35:37;23.51;61.89
76855;DHT22;66343;44.588;33.450;2023-06-10T08:38:09;23.58;62.16
76855;DHT22;66343;44.588;33.450;2023-06-10T08:40:39;23.60;62.29
76855;DHT22;66343;44.588;33.450;2023-06-10T08:43:42;23.49;65.28
76855;DHT22;66343;44.588;33.450;2023-06-10T08:46:18;23.39;65.98
76855;DHT22;66343;44.588;33.450;2023-06-10T08:48:49;23.39;65.82
76855;DHT22;66343;44.588;33.450;2023-06-10T08:51:25;23.41;64.90
76855;DHT22;66343;44.588;33.450;2023-06-10T08:54:15;23.55;63.47
76855;DHT22;66343;44.588;33.450;2023-06-10T08:56:54;23.66;64.79
76855;DHT22;66343;44.588;33.450;2023-06-10T08:59:26;23.76;62.25
76855;DHT22;66343;44.588;33.450;2023-06-10T09:01:58;23.82;61.61
76855;DHT22;66343;44.588;33.450;2023-06-10T09:04:30;23.86;62.69
76855;DHT22;66343;44.588;33.450;2023-06-10T09:07:08;23.85;58.66
76855;DHT22;66343;44.588;33.450;2023-06-10T09:09:43;23.97;60.99
76855;DHT22;66343;44.588;33.450;2023-06-10T09:12:14;24.08;56.79
76855;DHT22;66343;44.588;33.450;2023-06-10T09:14:44;24.23;56.50
76855;DHT22;66343;44.588;33.450;2023-06-10T09:17:15;24.39;55.68
76855;DHT22;66343;44.588;33.450;2023-06-10T09:19:46;24.65;54.48
76855;DHT22;66343;44.588;33.450;2023-06-10T09:22:16;24.78;53.75
76855;DHT22;66343;44.588;33.450;2023-06-10T09:24:52;24.94;53.52
76855;DHT22;66343;44.588;33.450;2023-06-10T09:27:52;25.04;52.62
76855;DHT22;66343;44.588;33.450;2023-06-10T09:30:27;25.05;52.20
76855;DHT22;66343;44.588;33.450;2023-06-10T09:33:10;25.07;52.75
76855;DHT22;66343;44.588;33.450;2023-06-10T09:35:50;25.06;52.41
76855;DHT22;66343;44.588;33.450;2023-06-10T09:38:30;25.08;52.18
76855;DHT22;66343;44.588;33.450;2023-06-10T09:41:03;25.12;51.70
76855;DHT22;66343;44.588;33.450;2023-06-10T09:43:43;25.13;52.58
76855;DHT22;66343;44.588;33.450;2023-06-10T09:46:30;25.15;52.93
76855;DHT22;66343;44.588;33.450;2023-06-10T09:49:04;25.19;52.94
76855;DHT22;66343;44.588;33.450;2023-06-10T09:51:36;25.28;52.78
76855;DHT22;66343;44.588;33.450;2023-06-10T09:54:06;25.37;52.21
76855;DHT22;66343;44.588;33.450;2023-06-10T09:56:37;25.40;50.40
76855;DHT22;66343;44.588;33.450;2023-06-10T09:59:14;25.44;51.82
76855;DHT22;66343;44.588;33.450;2023-06-10T10:01:47;25.61;50.21
76855;DHT22;66343;44.588;33.450;2023-06-10T10:04:27;25.58;50.52
76855;DHT22;66343;44.588;33.450;2023-06-10T10:07:03;25.35;51.24
76855;DHT22;66343;44.588;33.450;2023-06-10T10:09:41;24.98;52.11
76855;DHT22;66343;44.588;33.450;2023-06-10T10:12:13;24.87;52.95
76855;DHT22;66343;44.588;33.450;2023-06-10T10:14:48;24.77;53.31
76855;DHT22;66343;44.588;33.450;2023-06-10T10:17:27;24.70;53.51
76855;DHT22;66343;44.588;33.450;2023-06-10T10:20:02;24.68;53.14
76855;DHT22;66343;44.588;33.450;2023-06-10T10:22:40;24.59;53.95
76855;DHT22;66343;44.588;33.450;2023-06-10T10:25:25;24.59;53.68
76855;DHT22;66343;44.588;33.450;2023-06-10T10:28:12;24.63;54.41
76855;DHT22;66343;44.588;33.450;2023-06-10T10:30:47;24.68;53.73
76855;DHT22;66343;44.588;33.450;2023-06-10T10:33:26;24.69;53.99
76855;DHT22;66343;44.588;33.450;2023-06-10T10:36:00;24.66;54.17
76855;DHT22;66343;44.588;33.450;2023-06-10T10:38:36;24.66;53.95
76855;DHT22;66343;44.588;33.450;2023-06-10T10:41:09;24.72;54.51
76855;DHT22;66343;44.588;33.450;2023-06-10T10:43:44;24.80;53.42
76855;DHT22;66343;44.588;33.450;2023-06-10T10:46:17;24.74;53.97
76855;DHT22;66343;44.588;33.450;2023-06-10T10:48:55;24.78;54.21
76855;DHT22;66343;44.588;33.450;2023-06-10T10:51:33;24.76;54.26
76855;DHT22;66343;44.588;33.450;2023-06-10T10:54:13;24.79;53.48
76855;DHT22;66343;44.588;33.450;2023-06-10T10:57:23;24.77;53.94
76855;DHT22;66343;44.588;33.450;2023-06-10T10:59:58;24.73;54.35
76855;DHT22;66343;44.588;33.450;2023-06-10T11:02:34;24.64;53.87
76855;DHT22;66343;44.588;33.450;2023-06-10T11:05:08;24.62;55.45
76855;DHT22;66343;44.588;33.450;2023-06-10T11:07:55;24.76;54.77
76855;DHT22;66343;44.588;33.450;2023-06-10T11:10:38;24.77;54.17
76855;DHT22;66343;44.588;33.450;2023-06-10T11:13:19;24.72;54.44
76855;DHT22;66343;44.588;33.450;2023-06-10T11:15:57;24.75;54.98
76855;DHT22;66343;44.588;33.450;2023-06-10T11:18:40;24.93;55.49
76855;DHT22;66343;44.588;33.450;2023-06-10T11:21:20;25.30;54.33
76855;DHT22;66343;44.588;33.450;2023-06-10T11:23:52;25.61;53.68
76855;DHT22;66343;44.588;33.450;2023-06-10T11:29:09;25.59;52.91
76855;DHT22;66343;44.588;33.450;2023-06-10T11:31:48;25.39;53.50
76855;DHT22;66343;44.588;33.450;2023-06-10T11:34:24;25.28;54.58
76855;DHT22;66343;44.588;33.450;2023-06-10T11:36:59;25.17;54.72
76855;DHT22;66343;44.588;33.450;2023-06-10T11:39:32;25.02;55.52
76855;DHT22;66343;44.588;33.450;2023-06-10T11:42:07;24.88;55.94
76855;DHT22;66343;44.588;33.450;2023-06-10T11:44:37;24.73;56.52
76855;DHT22;66343;44.588;33.450;2023-06-10T11:47:09;24.82;56.21
76855;DHT22;66343;44.588;33.450;2023-06-10T11:49:41;25.21;55.57
76855;DHT22;66343;44.588;33.450;2023-06-10T11:52:29;25.63;54.59
76855;DHT22;66343;44.588;33.450;2023-06-10T11:55:04;26.02;52.78
76855;DHT22;66343;44.588;33.450;2023-06-10T11:57:44;26.30;52.94
76855;DHT22;66343;44.588;33.450;2023-06-10T12:00:21;26.40;52.09
76855;DHT22;66343;44.588;33.450;2023-06-10T12:02:56;26.42;51.46
76855;DHT22;66343;44.588;33.450;2023-06-10T12:05:31;26.68;51.00
76855;DHT22;66343;44.588;33.450;2023-06-10T12:08:12;26.91;49.56
76855;DHT22;66343;44.588;33.450;2023-06-10T12:10:45;27.06;49.28
76855;DHT22;66343;44.588;33.450;2023-06-10T12:13:22;27.39;49.98
76855;DHT22;66343;44.588;33.450;2023-06-10T12:16:07;27.49;48.66
76855;DHT22;66343;44.588;33.450;2023-06-10T12:18:39;27.47;48.50
76855;DHT22;66343;44.588;33.450;2023-06-10T12:21:23;27.78;47.67
76855;DHT22;66343;44.588;33.450;2023-06-10T12:24:23;27.74;47.16
76855;DHT22;66343;44.588;33.450;2023-06-10T12:26:56;27.81;47.00
76855;DHT22;66343;44.588;33.450;2023-06-10T12:29:26;27.86;47.41
76855;DHT22;66343;44.588;33.450;2023-06-10T12:32:04;27.57;47.34
76855;DHT22;66343;44.588;33.450;2023-06-10T12:34:40;27.13;48.52
76855;DHT22;66343;44.588;33.450;2023-06-10T12:37:13;26.85;49.05
76855;DHT22;66343;44.588;33.450;2023-06-10T12:39:53;26.66;49.43
76855;DHT22;66343;44.588;33.450;2023-06-10T12:42:26;26.53;49.32
76855;DHT22;66343;44.588;33.450;2023-06-10T12:44:59;26.56;49.47
76855;DHT22;66343;44.588;33.450;2023-06-10T12:47:35;26.69;49.70
76855;DHT22;66343;44.588;33.450;2023-06-10T12:50:11;26.56;49.89
76855;DHT22;66343;44.588;33.450;2023-06-10T12:52:41;26.43;51.60
76855;DHT22;66343;44.588;33.450;2023-06-10T12:55:15;26.03;53.42
76855;DHT22;66343;44.588;33.450;2023-06-10T12:57:50;25.63;55.20
76855;DHT22;66343;44.588;33.450;2023-06-10T13:00:28;25.44;55.11
76855;DHT22;66343;44.588;33.450;2023-06-10T13:03:03;25.30;55.00
76855;DHT22;66343;44.588;33.450;2023-06-10T13:05:39;25.09;55.01
76855;DHT22;66343;44.588;33.450;2023-06-10T13:08:09;25.02;54.69
76855;DHT22;66343;44.588;33.450;2023-06-10T13:10:39;24.93;54.90
76855;DHT22;66343;44.588;33.450;2023-06-10T13:13:08;24.88;54.94
76855;DHT22;66343;44.588;33.450;2023-06-10T13:15:40;24.83;55.43
76855;DHT22;66343;44.588;33.450;2023-06-10T13:18:19;24.82;55.47
76855;DHT22;66343;44.588;33.450;2023-06-10T13:20:57;24.88;55.09
76855;DHT22;66343;44.588;33.450;2023-06-10T13:23:26;25.07;54.87
76855;DHT22;66343;44.588;33.450;2023-06-10T13:26:02;25.30;54.42
76855;DHT22;66343;44.588;33.450;2023-06-10T13:28:37;25.60;53.91
76855;DHT22;66343;44.588;33.450;2023-06-10T13:31:07;26.28;51.09
76855;DHT22;66343;44.588;33.450;2023-06-10T13:33:39;26.87;50.55
76855;DHT22;66343;44.588;33.450;2023-06-10T13:36:12;27.42;48.63
76855;DHT22;66343;44.588;33.450;2023-06-10T13:38:46;27.49;48.58
76855;DHT22;66343;44.588;33.450;2023-06-10T13:41:17;27.08;49.31
76855;DHT22;66343;44.588;33.450;2023-06-10T13:43:47;26.75;50.43
76855;DHT22;66343;44.588;33.450;2023-06-10T13:46:16;26.52;51.14
76855;DHT22;66343;44.588;33.450;2023-06-10T13:48:48;26.26;52.14
76855;DHT22;66343;44.588;33.450;2023-06-10T13:51:20;26.02;53.08
76855;DHT22;66343;44.588;33.450;2023-06-10T13:53:55;25.78;53.64
76855;DHT22;66343;44.588;33.450;2023-06-10T13:56:28;25.52;54.90
76855;DHT22;66343;44.588;33.450;2023-06-10T13:59:00;25.29;55.69
76855;DHT22;66343;44.588;33.450;2023-06-10T14:01:34;25.28;57.09
76855;DHT22;66343;44.588;33.450;2023-06-10T14:04:04;25.25;57.45
76855;DHT22;66343;44.588;33.450;2023-06-10T14:06:36;25.17;57.98
76855;DHT22;66343;44.588;33.450;2023-06-10T14:09:06;25.06;57.90
76855;DHT22;66343;44.588;33.450;2023-06-10T14:11:39;25.06;57.89
76855;DHT22;66343;44.588;33.450;2023-06-10T14:14:08;24.91;56.62
76855;DHT22;66343;44.588;33.450;2023-06-10T14:16:39;24.95;56.28
76855;DHT22;66343;44.588;33.450;2023-06-10T14:19:17;25.08;55.61
76855;DHT22;66343;44.588;33.450;2023-06-10T14:21:53;25.75;53.85
76855;DHT22;66343;44.588;33.450;2023-06-10T14:24:27;25.68;53.18
76855;DHT22;66343;44.588;33.450;2023-06-10T14:26:57;25.87;52.46
76855;DHT22;66343;44.588;33.450;2023-06-10T14:29:27;26.25;51.53
76855;DHT22;66343;44.588;33.450;2023-06-10T14:32:00;26.81;49.80
76855;DHT22;66343;44.588;33.450;2023-06-10T14:34:41;27.14;48.97
76855;DHT22;66343;44.588;33.450;2023-06-10T14:37:15;26.83;49.65
76855;DHT22;66343;44.588;33.450;2023-06-10T14:39:45;26.67;50.17
76855;DHT22;66343;44.588;33.450;2023-06-10T14:42:20;26.03;52.02
76855;DHT22;66343;44.588;33.450;2023-06-10T14:44:52;25.61;53.91
76855;DHT22;66343;44.588;33.450;2023-06-10T14:47:24;25.24;55.42
76855;DHT22;66343;44.588;33.450;2023-06-10T14:49:54;25.04;56.26
76855;DHT22;66343;44.588;33.450;2023-06-10T14:52:33;24.68;57.12
76855;DHT22;66343;44.588;33.450;2023-06-10T14:55:13;24.47;58.13
76855;DHT22;66343;44.588;33.450;2023-06-10T14:57:54;24.41;58.33
76855;DHT22;66343;44.588;33.450;2023-06-10T15:00:30;24.31;58.62
76855;DHT22;66343;44.588;33.450;2023-06-10T15:03:04;24.15;58.81
76855;DHT22;66343;44.588;33.450;2023-06-10T15:05:42;24.00;59.51
76855;DHT22;66343;44.588;33.450;2023-06-10T15:08:14;24.01;59.48
76855;DHT22;66343;44.588;33.450;2023-06-10T15:10:50;24.01;59.42
76855;DHT22;66343;44.588;33.450;2023-06-10T15:13:20;24.02;59.40
76855;DHT22;66343;44.588;33.450;2023-06-10T15:15:49;24.11;59.59
76855;DHT22;66343;44.588;33.450;2023-06-10T15:18:22;24.05;59.98
76855;DHT22;66343;44.588;33.450;2023-06-10T15:20:55;24.12;60.17
76855;DHT22;66343;44.588;33.450;2023-06-10T15:23:30;24.10;60.96
76855;DHT22;66343;44.588;33.450;2023-06-10T15:25:59;24.01;62.10
76855;DHT22;66343;44.588;33.450;2023-06-10T15:28:33;24.47;61.18
76855;DHT22;66343;44.588;33.450;2023-06-10T15:31:06;25.04;59.70
76855;DHT22;66343;44.588;33.450;2023-06-10T15:33:36;25.53;57.18
76855;DHT22;66343;44.588;33.450;2023-06-10T15:36:06;25.89;55.85
76855;DHT22;66343;44.588;33.450;2023-06-10T15:38:35;25.99;56.13
76855;DHT22;66343;44.588;33.450;2023-06-10T15:41:05;26.50;54.45
76855;DHT22;66343;44.588;33.450;2023-06-10T15:43:37;26.97;51.69
76855;DHT22;66343;44.588;33.450;2023-06-10T15:46:06;27.01;49.56
76855;DHT22;66343;44.588;33.450;2023-06-10T15:48:36;26.65;49.84
76855;DHT22;66343;44.588;33.450;2023-06-10T15:51:05;26.66;50.18
76855;DHT22;66343;44.588;33.450;2023-06-10T15:53:36;26.56;50.39
76855;DHT22;66343;44.588;33.450;2023-06-10T15:56:05;26.71;49.89
76855;DHT22;66343;44.588;33.450;2023-06-10T15:58:39;26.89;49.61
76855;DHT22;66343;44.588;33.450;2023-06-10T16:01:08;26.83;49.69
76855;DHT22;66343;44.588;33.450;2023-06-10T16:03:43;26.97;49.50
76855;DHT22;66343;44.588;33.450;2023-06-10T16:06:13;26.98;49.29